sensor_id;sensor_type;location;lat;lon;timestamp;pressure;altitude;pressure_sealevel;temperature;humidity
17230;BME280;8731;50.364;8.958;2023-12-20T00:01:26;99923.00;;;5.88;100.00
17230;BME280;8731;50.364;8.958;2023-12-20T00:05:50;99909.13;;;5.92;100.00
17230;BME280;8731;50.364;8.958;2023-12-20T00:10:13;99898.28;;;5.93;100.00
17230;BME280;8731;50.364;8.958;2023-12-20T00:14:37;99901.00;;;5.87;100.00
17230;BME280;8731;50.364;8.958;2023-12-20T00:19:00;99897.94;;;5.90;100.00
17230;BME280;8731;50.364;8.958;2023-12-20T00:23:26;99889.25;;;5.88;100.00
17230;BME280;8731;50.364;8.958;2023-12-20T00:27:48;99890.50;;;5.91;100.00
17230;BME280;8731;50.364;8.958;2023-12-20T00:32:11;99891.34;;;5.99;100.00
17230;BME280;8731;50.364;8.958;2023-12-20T00:36:33;99882.75;;;6.05;100.00
17230;BME280;8731;50.364;8.958;2023-12-20T00:40:57;99882.88;;;5.98;100.00
17230;BME280;8731;50.364;8.958;2023-12-20T00:45:19;99883.03;;;6.00;100.00
17230;BME280;8731;50.364;8.958;2023-12-20T00:49:42;99889.38;;;5.96;100.00
17230;BME280;8731;50.364;8.958;2023-12-20T00:54:05;99886.03;;;6.04;100.00
17230;BME280;8731;50.364;8.958;2023-12-20T00:58:29;99889.88;;;6.01;100.00
17230;BME280;8731;50.364;8.958;2023-12-20T01:02:52;99887.19;;;5.99;100.00
17230;BME280;8731;50.364;8.958;2023-12-20T01:07:15;99878.28;;;6.03;100.00
17230;BME280;8731;50.364;8.958;2023-12-20T01:11:39;99884.97;;;6.02;100.00
17230;BME280;8731;50.364;8.958;2023-12-20T01:16:04;99878.03;;;6.08;100.00
17230;BME280;8731;50.364;8.958;2023-12-20T01:20:28;99868.81;;;6.09;100.00
17230;BME280;8731;50.364;8.958;2023-12-20T01:24:50;99861.66;;;6.05;100.00
17230;BME280;8731;50.364;8.958;2023-12-20T01:29:12;99867.91;;;6.08;100.00
17230;BME280;8731;50.364;8.958;2023-12-20T01:33:37;99864.91;;;6.04;100.00
17230;BME280;8731;50.364;8.958;2023-12-20T01:38:00;99862.66;;;5.98;100.00
17230;BME280;8731;50.364;8.958;2023-12-20T01:42:22;99872.97;;;6.08;100.00
17230;BME280;8731;50.364;8.958;2023-12-20T01:46:45;99865.50;;;6.01;100.00
17230;BME280;8731;50.364;8.958;2023-12-20T01:51:11;99871.19;;;6.07;100.00
17230;BME280;8731;50.364;8.958;2023-12-20T01:55:35;99869.72;;;6.09;100.00
17230;BME280;8731;50.364;8.958;2023-12-20T02:00:00;99878.03;;;6.08;100.00
17230;BME280;8731;50.364;8.958;2023-12-20T02:04:25;99881.28;;;6.07;100.00
17230;BME280;8731;50.364;8.958;2023-12-20T02:08:50;99892.44;;;6.09;100.00
17230;BME280;8731;50.364;8.958;2023-12-20T02:13:12;99894.66;;;6.06;100.00
17230;BME280;8731;50.364;8.958;2023-12-20T02:17:36;99874.13;;;6.03;100.00
17230;BME280;8731;50.364;8.958;2023-12-20T02:22:09;99882.09;;;6.15;100.00
17230;BME280;8731;50.364;8.958;2023-12-20T02:26:32;99864.06;;;6.12;100.00
17230;BME280;8731;50.364;8.958;2023-12-20T02:30:56;99862.59;;;6.14;100.00
17230;BME280;8731;50.364;8.958;2023-12-20T02:35:18;99867.34;;;6.11;100.00
17230;BME280;8731;50.364;8.958;2023-12-20T02:39:42;99873.94;;;6.18;100.00
17230;BME280;8731;50.364;8.958;2023-12-20T02:44:04;99879.00;;;6.18;100.00
17230;BME280;8731;50.364;8.958;2023-12-20T02:48:27;99867.66;;;6.14;100.00
17230;BME280;8731;50.364;8.958;2023-12-20T02:52:49;99864.06;;;6.12;100.00
17230;BME280;8731;50.364;8.958;2023-12-20T02:57:13;99875.06;;;6.12;100.00
17230;BME280;8731;50.364;8.958;2023-12-20T03:01:41;99874.03;;;6.10;100.00
17230;BME280;8731;50.364;8.958;2023-12-20T03:06:05;99872.16;;;6.17;100.00
17230;BME280;8731;50.364;8.958;2023-12-20T03:10:27;99872.41;;;6.11;100.00
17230;BME280;8731;50.364;8.958;2023-12-20T03:14:51;99868.53;;;6.14;100.00
17230;BME280;8731;50.364;8.958;2023-12-20T03:19:14;99868.44;;;5.97;100.00
17230;BME280;8731;50.364;8.958;2023-12-20T03:23:37;99872.72;;;6.14;100.00
17230;BME280;8731;50.364;8.958;2023-12-20T03:28:00;99892.13;;;6.06;100.00
17230;BME280;8731;50.364;8.958;2023-12-20T03:32:24;99885.19;;;6.12;100.00
17230;BME280;8731;50.364;8.958;2023-12-20T03:36:48;99898.56;;;6.11;100.00
17230;BME280;8731;50.364;8.958;2023-12-20T03:41:11;99902.88;;;6.12;100.00
17230;BME280;8731;50.364;8.958;2023-12-20T03:45:34;99901.50;;;6.07;100.00
17230;BME280;8731;50.364;8.958;2023-12-20T03:49:58;99915.34;;;6.11;100.00
17230;BME280;8731;50.364;8.958;2023-12-20T03:54:20;99905.56;;;6.14;100.00
17230;BME280;8731;50.364;8.958;2023-12-20T03:58:44;99906.72;;;6.09;100.00
17230;BME280;8731;50.364;8.958;2023-12-20T04:03:07;99898.09;;;6.07;100.00
17230;BME280;8731;50.364;8.958;2023-12-20T04:07:36;99906.56;;;6.07;100.00
17230;BME280;8731;50.364;8.958;2023-12-20T04:11:58;99904.19;;;6.09;100.00
17230;BME280;8731;50.364;8.958;2023-12-20T04:16:21;99914.72;;;6.05;100.00
17230;BME280;8731;50.364;8.958;2023-12-20T04:20:43;99914.13;;;6.07;100.00
17230;BME280;8731;50.364;8.958;2023-12-20T04:25:09;99924.66;;;6.03;100.00
17230;BME280;8731;50.364;8.958;2023-12-20T04:29:31;99911.22;;;5.96;100.00
17230;BME280;8731;50.364;8.958;2023-12-20T04:33:54;99914.25;;;6.00;100.00
17230;BME280;8731;50.364;8.958;2023-12-20T04:38:16;99919.38;;;5.93;100.00
17230;BME280;8731;50.364;8.958;2023-12-20T04:42:40;99929.84;;;5.89;100.00
17230;BME280;8731;50.364;8.958;2023-12-20T04:47:03;99925.19;;;5.85;100.00
17230;BME280;8731;50.364;8.958;2023-12-20T04:51:25;99934.00;;;5.73;100.00
17230;BME280;8731;50.364;8.958;2023-12-20T04:55:48;99943.53;;;5.75;100.00
17230;BME280;8731;50.364;8.958;2023-12-20T05:00:14;99947.75;;;5.68;100.00
17230;BME280;8731;50.364;8.958;2023-12-20T05:04:38;99946.69;;;5.66;100.00
17230;BME280;8731;50.364;8.958;2023-12-20T05:09:01;99962.56;;;5.65;100.00
17230;BME280;8731;50.364;8.958;2023-12-20T05:13:25;99954.44;;;5.67;100.00
17230;BME280;8731;50.364;8.958;2023-12-20T05:17:49;99962.19;;;5.69;100.00
17230;BME280;8731;50.364;8.958;2023-12-20T05:22:12;99967.25;;;5.69;100.00
17230;BME280;8731;50.364;8.958;2023-12-20T05:26:34;99964.88;;;5.70;100.00
17230;BME280;8731;50.364;8.958;2023-12-20T05:30:57;99976.06;;;5.72;100.00
17230;BME280;8731;50.364;8.958;2023-12-20T05:35:21;99977.34;;;5.69;100.00
17230;BME280;8731;50.364;8.958;2023-12-20T05:39:45;99974.59;;;5.74;100.00
17230;BME280;8731;50.364;8.958;2023-12-20T05:44:09;99979.63;;;5.74;100.00
17230;BME280;8731;50.364;8.958;2023-12-20T05:48:32;99974.41;;;5.73;100.00
17230;BME280;8731;50.364;8.958;2023-12-20T05:52:59;99976.47;;;5.68;100.00
17230;BME280;8731;50.364;8.958;2023-12-20T05:57:22;99991.41;;;5.67;100.00
17230;BME280;8731;50.364;8.958;2023-12-20T06:01:45;100000.97;;;5.69;100.00
17230;BME280;8731;50.364;8.958;2023-12-20T06:06:08;100010.72;;;5.66;100.00
17230;BME280;8731;50.364;8.958;2023-12-20T06:10:34;100029.38;;;5.60;100.00
17230;BME280;8731;50.364;8.958;2023-12-20T06:14:57;100030.94;;;5.66;100.00
17230;BME280;8731;50.364;8.958;2023-12-20T06:19:21;100041.59;;;5.64;100.00
17230;BME280;8731;50.364;8.958;2023-12-20T06:23:45;100037.28;;;5.63;100.00
17230;BME280;8731;50.364;8.958;2023-12-20T06:28:09;100039.31;;;5.58;100.00
17230;BME280;8731;50.364;8.958;2023-12-20T06:32:45;100026.97;;;5.45;100.00
17230;BME280;8731;50.364;8.958;2023-12-20T06:37:08;100024.25;;;5.44;100.00
17230;BME280;8731;50.364;8.958;2023-12-20T06:41:30;100043.47;;;5.35;100.00
17230;BME280;8731;50.364;8.958;2023-12-20T06:45:56;100053.22;;;5.32;100.00
17230;BME280;8731;50.364;8.958;2023-12-20T06:50:20;100059.94;;;5.24;100.00
17230;BME280;8731;50.364;8.958;2023-12-20T06:54:43;100048.78;;;5.22;100.00
17230;BME280;8731;50.364;8.958;2023-12-20T06:59:07;100044.16;;;5.11;100.00
17230;BME280;8731;50.364;8.958;2023-12-20T07:03:35;100050.78;;;5.17;100.00
17230;BME280;8731;50.364;8.958;2023-12-20T07:07:58;100052.47;;;5.10;100.00
17230;BME280;8731;50.364;8.958;2023-12-20T07:12:24;100070.13;;;5.10;100.00
17230;BME280;8731;50.364;8.958;2023-12-20T07:16:47;100064.91;;;5.08;100.00
17230;BME280;8731;50.364;8.958;2023-12-20T07:21:11;100062.03;;;5.05;100.00
17230;BME280;8731;50.364;8.958;2023-12-20T07:25:33;100061.19;;;4.98;100.00
17230;BME280;8731;50.364;8.958;2023-12-20T07:29:59;100066.44;;;4.92;100.00
17230;BME280;8731;50.364;8.958;2023-12-20T07:34:21;100084.25;;;4.93;100.00
17230;BME280;8731;50.364;8.958;2023-12-20T07:38:45;100086.75;;;5.01;100.00
17230;BME280;8731;50.364;8.958;2023-12-20T07:43:08;100078.66;;;4.96;100.00
17230;BME280;8731;50.364;8.958;2023-12-20T07:47:33;100085.66;;;5.06;100.00
17230;BME280;8731;50.364;8.958;2023-12-20T07:51:55;100100.22;;;5.08;100.00
17230;BME280;8731;50.364;8.958;2023-12-20T07:56:20;100092.81;;;5.10;100.00
17230;BME280;8731;50.364;8.958;2023-12-20T08:00:44;100100.91;;;5.14;100.00
17230;BME280;8731;50.364;8.958;2023-12-20T08:05:07;100106.84;;;5.15;100.00
17230;BME280;8731;50.364;8.958;2023-12-20T08:09:30;100116.75;;;5.20;100.00
17230;BME280;8731;50.364;8.958;2023-12-20T08:13:55;100120.13;;;5.28;100.00
17230;BME280;8731;50.364;8.958;2023-12-20T08:18:18;100118.28;;;5.34;100.00
17230;BME280;8731;50.364;8.958;2023-12-20T08:22:41;100114.81;;;5.41;100.00
17230;BME280;8731;50.364;8.958;2023-12-20T08:27:04;100122.72;;;5.44;100.00
17230;BME280;8731;50.364;8.958;2023-12-20T08:31:28;100125.22;;;5.51;100.00
17230;BME280;8731;50.364;8.958;2023-12-20T08:35:51;100127.69;;;5.58;100.00
17230;BME280;8731;50.364;8.958;2023-12-20T08:40:13;100123.69;;;5.60;100.00
17230;BME280;8731;50.364;8.958;2023-12-20T08:44:36;100124.25;;;5.58;100.00
17230;BME280;8731;50.364;8.958;2023-12-20T08:49:01;100125.25;;;5.67;100.00
17230;BME280;8731;50.364;8.958;2023-12-20T08:53:24;100128.31;;;5.71;100.00
17230;BME280;8731;50.364;8.958;2023-12-20T08:57:47;100136.41;;;5.76;100.00
17230;BME280;8731;50.364;8.958;2023-12-20T09:02:10;100134.94;;;5.78;100.00
17230;BME280;8731;50.364;8.958;2023-12-20T09:06:36;100137.06;;;5.82;100.00
17230;BME280;8731;50.364;8.958;2023-12-20T09:10:58;100127.47;;;5.86;100.00
17230;BME280;8731;50.364;8.958;2023-12-20T09:15:21;100121.09;;;5.97;100.00
17230;BME280;8731;50.364;8.958;2023-12-20T09:19:45;100109.06;;;6.10;100.00
17230;BME280;8731;50.364;8.958;2023-12-20T09:24:09;100126.34;;;6.14;100.00
17230;BME280;8731;50.364;8.958;2023-12-20T09:28:33;100130.94;;;6.26;100.00
17230;BME280;8731;50.364;8.958;2023-12-20T09:32:57;100136.72;;;6.63;100.00
17230;BME280;8731;50.364;8.958;2023-12-20T09:37:19;100141.84;;;6.72;100.00
17230;BME280;8731;50.364;8.958;2023-12-20T09:41:45;100142.84;;;6.65;100.00
17230;BME280;8731;50.364;8.958;2023-12-20T09:46:24;100154.50;;;6.88;100.00
17230;BME280;8731;50.364;8.958;2023-12-20T09:50:53;100146.97;;;6.96;100.00
17230;BME280;8731;50.364;8.958;2023-12-20T09:55:17;100148.44;;;7.10;100.00
17230;BME280;8731;50.364;8.958;2023-12-20T09:59:42;100136.31;;;7.23;100.00
17230;BME280;8731;50.364;8.958;2023-12-20T10:04:05;100141.84;;;7.44;100.00
17230;BME280;8731;50.364;8.958;2023-12-20T10:08:29;100132.41;;;7.34;100.00
17230;BME280;8731;50.364;8.958;2023-12-20T10:13:03;100134.94;;;7.58;100.00
17230;BME280;8731;50.364;8.958;2023-12-20T10:17:29;100137.13;;;7.55;100.00
17230;BME280;8731;50.364;8.958;2023-12-20T10:21:51;100116.06;;;7.48;100.00
17230;BME280;8731;50.364;8.958;2023-12-20T10:26:19;100114.44;;;7.48;100.00
17230;BME280;8731;50.364;8.958;2023-12-20T10:30:44;100106.25;;;7.75;100.00
17230;BME280;8731;50.364;8.958;2023-12-20T10:35:09;100097.25;;;7.61;100.00
17230;BME280;8731;50.364;8.958;2023-12-20T10:39:32;100078.94;;;7.64;100.00
17230;BME280;8731;50.364;8.958;2023-12-20T10:43:56;100079.50;;;7.94;100.00
17230;BME280;8731;50.364;8.958;2023-12-20T10:48:21;100079.63;;;7.87;100.00
17230;BME280;8731;50.364;8.958;2023-12-20T10:52:50;100082.91;;;7.86;100.00
17230;BME280;8731;50.364;8.958;2023-12-20T10:57:18;100069.94;;;7.92;100.00
17230;BME280;8731;50.364;8.958;2023-12-20T11:01:41;100073.38;;;7.92;100.00
17230;BME280;8731;50.364;8.958;2023-12-20T11:06:11;100069.50;;;7.96;100.00
17230;BME280;8731;50.364;8.958;2023-12-20T11:10:55;100064.69;;;7.82;100.00
17230;BME280;8731;50.364;8.958;2023-12-20T11:15:24;100067.25;;;7.90;100.00
17230;BME280;8731;50.364;8.958;2023-12-20T11:20:09;100069.91;;;7.83;100.00
17230;BME280;8731;50.364;8.958;2023-12-20T11:24:44;100070.69;;;7.99;100.00
17230;BME280;8731;50.364;8.958;2023-12-20T11:29:31;100064.50;;;7.80;100.00
17230;BME280;8731;50.364;8.958;2023-12-20T11:34:13;100054.59;;;7.90;100.00
17230;BME280;8731;50.364;8.958;2023-12-20T11:38:37;100060.84;;;7.85;100.00
17230;BME280;8731;50.364;8.958;2023-12-20T11:43:00;100061.31;;;7.98;100.00
17230;BME280;8731;50.364;8.958;2023-12-20T11:47:24;100059.44;;;7.80;100.00
17230;BME280;8731;50.364;8.958;2023-12-20T11:51:48;100054.88;;;7.93;100.00
17230;BME280;8731;50.364;8.958;2023-12-20T11:56:10;100056.69;;;7.94;100.00
17230;BME280;8731;50.364;8.958;2023-12-20T12:00:33;100063.66;;;7.88;100.00
17230;BME280;8731;50.364;8.958;2023-12-20T12:04:59;100053.25;;;7.94;99.90
17230;BME280;8731;50.364;8.958;2023-12-20T12:09:27;100044.59;;;7.92;96.82
17230;BME280;8731;50.364;8.958;2023-12-20T12:13:50;100032.22;;;8.04;97.07
17230;BME280;8731;50.364;8.958;2023-12-20T12:18:15;100044.75;;;7.93;94.06
17230;BME280;8731;50.364;8.958;2023-12-20T12:22:39;100053.59;;;8.06;93.80
17230;BME280;8731;50.364;8.958;2023-12-20T12:27:02;100035.84;;;8.06;93.63
17230;BME280;8731;50.364;8.958;2023-12-20T12:31:27;100044.00;;;7.94;92.55
17230;BME280;8731;50.364;8.958;2023-12-20T12:35:50;100047.03;;;8.08;93.04
17230;BME280;8731;50.364;8.958;2023-12-20T12:40:16;100028.78;;;7.94;91.92
17230;BME280;8731;50.364;8.958;2023-12-20T12:44:40;100023.16;;;8.06;92.80
17230;BME280;8731;50.364;8.958;2023-12-20T12:49:04;100018.09;;;8.23;93.00
17230;BME280;8731;50.364;8.958;2023-12-20T12:53:26;100010.94;;;8.19;92.97
17230;BME280;8731;50.364;8.958;2023-12-20T12:57:50;100000.94;;;8.12;91.53
17230;BME280;8731;50.364;8.958;2023-12-20T13:02:13;99995.13;;;8.13;91.59
17230;BME280;8731;50.364;8.958;2023-12-20T13:06:36;99984.25;;;8.22;91.72
17230;BME280;8731;50.364;8.958;2023-12-20T13:10:59;99966.19;;;8.19;90.41
17230;BME280;8731;50.364;8.958;2023-12-20T13:15:25;99953.38;;;8.09;90.76
17230;BME280;8731;50.364;8.958;2023-12-20T13:19:48;99957.88;;;8.29;91.00
17230;BME280;8731;50.364;8.958;2023-12-20T13:24:10;99951.28;;;8.22;90.76
17230;BME280;8731;50.364;8.958;2023-12-20T13:28:34;99952.31;;;8.16;90.61
17230;BME280;8731;50.364;8.958;2023-12-20T13:32:58;99938.00;;;8.25;91.44
17230;BME280;8731;50.364;8.958;2023-12-20T13:37:20;99928.91;;;8.10;91.13
17230;BME280;8731;50.364;8.958;2023-12-20T13:41:44;99921.47;;;8.11;91.76
17230;BME280;8731;50.364;8.958;2023-12-20T13:46:06;99937.41;;;8.19;92.26
17230;BME280;8731;50.364;8.958;2023-12-20T13:50:31;99937.72;;;8.13;91.98
17230;BME280;8731;50.364;8.958;2023-12-20T13:54:53;99933.97;;;8.18;91.67
17230;BME280;8731;50.364;8.958;2023-12-20T13:59:16;99945.16;;;8.12;91.72
17230;BME280;8731;50.364;8.958;2023-12-20T14:03:39;99950.69;;;8.08;92.07
17230;BME280;8731;50.364;8.958;2023-12-20T14:08:06;99946.22;;;8.05;92.39
17230;BME280;8731;50.364;8.958;2023-12-20T14:12:29;99938.91;;;8.08;92.31
17230;BME280;8731;50.364;8.958;2023-12-20T14:16:56;99937.28;;;8.09;92.78
17230;BME280;8731;50.364;8.958;2023-12-20T14:21:19;99931.28;;;7.99;92.96
17230;BME280;8731;50.364;8.958;2023-12-20T14:25:45;99916.84;;;8.07;93.01
17230;BME280;8731;50.364;8.958;2023-12-20T14:30:10;99922.94;;;8.09;93.28
17230;BME280;8731;50.364;8.958;2023-12-20T14:34:34;99915.47;;;8.02;92.52
17230;BME280;8731;50.364;8.958;2023-12-20T14:38:57;99922.19;;;7.93;92.31
17230;BME280;8731;50.364;8.958;2023-12-20T14:43:21;99910.09;;;7.90;91.97
17230;BME280;8731;50.364;8.958;2023-12-20T14:47:43;99906.69;;;7.90;92.31
17230;BME280;8731;50.364;8.958;2023-12-20T14:52:08;99908.31;;;7.89;92.38
17230;BME280;8731;50.364;8.958;2023-12-20T14:56:32;99923.06;;;7.93;92.60
17230;BME280;8731;50.364;8.958;2023-12-20T15:00:56;99925.47;;;7.92;92.62
17230;BME280;8731;50.364;8.958;2023-12-20T15:05:19;99921.59;;;7.95;93.22
17230;BME280;8731;50.364;8.958;2023-12-20T15:09:42;99902.06;;;7.94;93.21
17230;BME280;8731;50.364;8.958;2023-12-20T15:14:07;99911.00;;;7.91;93.79
17230;BME280;8731;50.364;8.958;2023-12-20T15:18:32;99912.50;;;7.89;93.24
17230;BME280;8731;50.364;8.958;2023-12-20T15:22:55;99911.31;;;7.85;93.01
17230;BME280;8731;50.364;8.958;2023-12-20T15:27:21;99905.94;;;7.91;93.87
17230;BME280;8731;50.364;8.958;2023-12-20T15:31:45;99915.91;;;7.89;94.07
17230;BME280;8731;50.364;8.958;2023-12-20T15:36:10;99905.19;;;7.83;94.14
17230;BME280;8731;50.364;8.958;2023-12-20T15:40:37;99902.66;;;7.83;94.10
17230;BME280;8731;50.364;8.958;2023-12-20T15:44:59;99905.34;;;7.85;93.93
17230;BME280;8731;50.364;8.958;2023-12-20T15:49:22;99906.50;;;7.80;94.13
17230;BME280;8731;50.364;8.958;2023-12-20T15:53:45;99909.94;;;7.80;93.92
17230;BME280;8731;50.364;8.958;2023-12-20T15:58:08;99911.91;;;7.83;94.37
17230;BME280;8731;50.364;8.958;2023-12-20T16:02:31;99891.78;;;7.84;94.19
17230;BME280;8731;50.364;8.958;2023-12-20T16:06:53;99879.69;;;7.82;94.24
17230;BME280;8731;50.364;8.958;2023-12-20T16:11:17;99886.41;;;7.81;94.10
17230;BME280;8731;50.364;8.958;2023-12-20T16:15:41;99888.00;;;7.72;94.39
17230;BME280;8731;50.364;8.958;2023-12-20T16:20:07;99893.69;;;7.78;95.31
17230;BME280;8731;50.364;8.958;2023-12-20T16:24:30;99903.22;;;7.72;95.03
17230;BME280;8731;50.364;8.958;2023-12-20T16:28:57;99906.78;;;7.65;95.60
17230;BME280;8731;50.364;8.958;2023-12-20T16:33:19;99906.50;;;7.71;95.82
17230;BME280;8731;50.364;8.958;2023-12-20T16:37:42;99920.06;;;7.63;95.69
17230;BME280;8731;50.364;8.958;2023-12-20T16:42:06;99916.03;;;7.65;95.97
17230;BME280;8731;50.364;8.958;2023-12-20T16:46:31;99911.72;;;7.64;95.95
17230;BME280;8731;50.364;8.958;2023-12-20T16:50:54;99901.13;;;7.59;96.17
17230;BME280;8731;50.364;8.958;2023-12-20T16:55:17;99893.69;;;7.69;96.61
17230;BME280;8731;50.364;8.958;2023-12-20T16:59:42;99893.38;;;7.58;96.79
17230;BME280;8731;50.364;8.958;2023-12-20T17:04:06;99882.00;;;7.54;96.93
17230;BME280;8731;50.364;8.958;2023-12-20T17:08:28;99878.13;;;7.49;97.51
17230;BME280;8731;50.364;8.958;2023-12-20T17:12:53;99881.72;;;7.51;97.74
17230;BME280;8731;50.364;8.958;2023-12-20T17:17:15;99882.34;;;7.57;98.17
17230;BME280;8731;50.364;8.958;2023-12-20T17:21:40;99875.00;;;7.52;98.42
17230;BME280;8731;50.364;8.958;2023-12-20T17:26:03;99876.66;;;7.51;98.50
17230;BME280;8731;50.364;8.958;2023-12-20T17:30:26;99872.81;;;7.63;98.87
17230;BME280;8731;50.364;8.958;2023-12-20T17:34:48;99886.47;;;7.57;98.61
17230;BME280;8731;50.364;8.958;2023-12-20T17:39:12;99884.25;;;7.51;98.38
17230;BME280;8731;50.364;8.958;2023-12-20T17:43:37;99890.50;;;7.55;98.33
17230;BME280;8731;50.364;8.958;2023-12-20T17:48:00;99880.81;;;7.51;98.47
17230;BME280;8731;50.364;8.958;2023-12-20T17:52:24;99886.47;;;7.48;98.76
17230;BME280;8731;50.364;8.958;2023-12-20T17:56:49;99869.50;;;7.47;99.29
17230;BME280;8731;50.364;8.958;2023-12-20T18:01:13;99874.25;;;7.44;99.03
17230;BME280;8731;50.364;8.958;2023-12-20T18:05:35;99865.75;;;7.44;99.33
17230;BME280;8731;50.364;8.958;2023-12-20T18:09:58;99872.78;;;7.46;99.48
17230;BME280;8731;50.364;8.958;2023-12-20T18:14:23;99869.34;;;7.46;100.00
17230;BME280;8731;50.364;8.958;2023-12-20T18:18:47;99875.59;;;7.41;100.00
17230;BME280;8731;50.364;8.958;2023-12-20T18:23:10;99869.19;;;7.44;100.00
17230;BME280;8731;50.364;8.958;2023-12-20T18:27:32;99856.09;;;7.48;100.00
17230;BME280;8731;50.364;8.958;2023-12-20T18:31:56;99864.13;;;7.44;100.00
17230;BME280;8731;50.364;8.958;2023-12-20T18:36:19;99845.94;;;7.39;100.00
17230;BME280;8731;50.364;8.958;2023-12-20T18:40:42;99848.34;;;7.47;100.00
17230;BME280;8731;50.364;8.958;2023-12-20T18:45:08;99850.88;;;7.47;100.00
17230;BME280;8731;50.364;8.958;2023-12-20T18:49:33;99854.72;;;7.34;100.00
17230;BME280;8731;50.364;8.958;2023-12-20T18:53:58;99860.56;;;7.42;100.00
17230;BME280;8731;50.364;8.958;2023-12-20T18:58:23;99857.56;;;7.37;100.00
17230;BME280;8731;50.364;8.958;2023-12-20T19:03:09;99837.25;;;7.29;100.00
17230;BME280;8731;50.364;8.958;2023-12-20T19:07:33;99840.84;;;7.31;100.00
17230;BME280;8731;50.364;8.958;2023-12-20T19:11:56;99833.25;;;7.31;100.00
17230;BME280;8731;50.364;8.958;2023-12-20T19:16:25;99828.03;;;7.29;100.00
17230;BME280;8731;50.364;8.958;2023-12-20T19:20:53;99818.94;;;7.23;100.00
17230;BME280;8731;50.364;8.958;2023-12-20T19:25:18;99809.25;;;7.27;100.00
17230;BME280;8731;50.364;8.958;2023-12-20T19:29:44;99802.84;;;7.22;100.00
17230;BME280;8731;50.364;8.958;2023-12-20T19:34:08;99806.28;;;7.14;100.00
17230;BME280;8731;50.364;8.958;2023-12-20T19:38:31;99814.34;;;7.27;100.00
17230;BME280;8731;50.364;8.958;2023-12-20T19:42:55;99802.25;;;7.16;100.00
17230;BME280;8731;50.364;8.958;2023-12-20T19:47:18;99793.63;;;7.14;100.00
17230;BME280;8731;50.364;8.958;2023-12-20T19:51:41;99778.28;;;7.21;100.00
17230;BME280;8731;50.364;8.958;2023-12-20T19:56:14;99771.28;;;7.19;100.00
17230;BME280;8731;50.364;8.958;2023-12-20T20:00:38;99777.25;;;7.19;100.00
17230;BME280;8731;50.364;8.958;2023-12-20T20:05:01;99777.25;;;7.19;100.00
17230;BME280;8731;50.364;8.958;2023-12-20T20:09:24;99769.50;;;7.26;100.00
17230;BME280;8731;50.364;8.958;2023-12-20T20:13:47;99765.19;;;7.25;100.00
17230;BME280;8731;50.364;8.958;2023-12-20T20:18:11;99754.47;;;7.28;100.00
17230;BME280;8731;50.364;8.958;2023-12-20T20:22:34;99748.19;;;7.24;100.00
17230;BME280;8731;50.364;8.958;2023-12-20T20:26:57;99749.38;;;7.28;100.00
17230;BME280;8731;50.364;8.958;2023-12-20T20:31:19;99740.31;;;7.30;100.00
17230;BME280;8731;50.364;8.958;2023-12-20T20:35:43;99740.31;;;7.30;100.00
17230;BME280;8731;50.364;8.958;2023-12-20T20:40:11;99730.03;;;7.28;100.00
17230;BME280;8731;50.364;8.958;2023-12-20T20:44:42;99730.63;;;7.26;100.00
17230;BME280;8731;50.364;8.958;2023-12-20T20:49:06;99723.78;;;7.25;100.00
17230;BME280;8731;50.364;8.958;2023-12-20T20:53:37;99711.88;;;7.24;100.00
17230;BME280;8731;50.364;8.958;2023-12-20T20:58:02;99710.81;;;7.22;100.00
17230;BME280;8731;50.364;8.958;2023-12-20T21:02:29;99693.41;;;7.25;100.00
17230;BME280;8731;50.364;8.958;2023-12-20T21:06:54;99680.88;;;7.26;100.00
17230;BME280;8731;50.364;8.958;2023-12-20T21:11:22;99675.53;;;7.23;100.00
17230;BME280;8731;50.364;8.958;2023-12-20T21:15:46;99678.50;;;7.28;100.00
17230;BME280;8731;50.364;8.958;2023-12-20T21:20:15;99658.69;;;7.24;100.00
17230;BME280;8731;50.364;8.958;2023-12-20T21:24:42;99647.53;;;7.22;100.00
17230;BME280;8731;50.364;8.958;2023-12-20T21:29:11;99646.03;;;7.32;100.00
17230;BME280;8731;50.364;8.958;2023-12-20T21:33:37;99627.13;;;7.29;100.00
17230;BME280;8731;50.364;8.958;2023-12-20T21:38:03;99606.41;;;7.24;100.00
17230;BME280;8731;50.364;8.958;2023-12-20T21:42:28;99603.28;;;7.27;100.00
17230;BME280;8731;50.364;8.958;2023-12-20T21:46:54;99600.63;;;7.25;100.00
17230;BME280;8731;50.364;8.958;2023-12-20T21:51:19;99588.38;;;7.30;100.00
17230;BME280;8731;50.364;8.958;2023-12-20T21:55:44;99598.66;;;7.31;100.00
17230;BME280;8731;50.364;8.958;2023-12-20T22:00:12;99579.28;;;7.32;100.00
17230;BME280;8731;50.364;8.958;2023-12-20T22:04:40;99576.94;;;7.33;100.00
17230;BME280;8731;50.364;8.958;2023-12-20T22:09:13;99573.19;;;7.38;100.00
17230;BME280;8731;50.364;8.958;2023-12-20T22:13:36;99556.50;;;7.41;100.00
17230;BME280;8731;50.364;8.958;2023-12-20T22:17:59;99561.16;;;7.36;100.00
17230;BME280;8731;50.364;8.958;2023-12-20T22:22:23;99555.47;;;7.38;100.00
17230;BME280;8731;50.364;8.958;2023-12-20T22:26:45;99573.63;;;7.43;100.00
17230;BME280;8731;50.364;8.958;2023-12-20T22:31:08;99557.53;;;7.43;100.00
17230;BME280;8731;50.364;8.958;2023-12-20T22:35:30;99553.03;;;7.49;100.00
17230;BME280;8731;50.364;8.958;2023-12-20T22:39:54;99554.41;;;7.45;100.00
17230;BME280;8731;50.364;8.958;2023-12-20T22:44:17;99554.88;;;7.41;100.00
17230;BME280;8731;50.364;8.958;2023-12-20T22:48:41;99536.09;;;7.39;100.00
17230;BME280;8731;50.364;8.958;2023-12-20T22:53:04;99539.66;;;7.41;100.00
17230;BME280;8731;50.364;8.958;2023-12-20T22:57:29;99525.97;;;7.39;100.00
17230;BME280;8731;50.364;8.958;2023-12-20T23:01:51;99504.81;;;7.38;100.00
17230;BME280;8731;50.364;8.958;2023-12-20T23:06:14;99493.94;;;7.39;100.00
17230;BME280;8731;50.364;8.958;2023-12-20T23:10:37;99474.03;;;7.34;100.00
17230;BME280;8731;50.364;8.958;2023-12-20T23:15:02;99470.13;;;7.37;100.00
17230;BME280;8731;50.364;8.958;2023-12-20T23:19:25;99476.84;;;7.28;100.00
17230;BME280;8731;50.364;8.958;2023-12-20T23:23:49;99478.47;;;7.36;100.00
17230;BME280;8731;50.364;8.958;2023-12-20T23:28:12;99481.00;;;7.36;100.00
17230;BME280;8731;50.364;8.958;2023-12-20T23:32:36;99485.19;;;7.27;100.00
17230;BME280;8731;50.364;8.958;2023-12-20T23:36:59;99477.25;;;7.42;100.00